createdAt,value
2022-08-09T00:01:01.788Z,3.2
2022-08-09T00:03:10.786Z,3.5
2022-08-09T00:06:15.244Z,4
2022-08-09T00:07:22.134Z,5.1
2022-08-09T00:09:27.926Z,3.6
2022-08-09T00:12:02.839Z,4.1
2022-08-09T00:13:40.824Z,4.5
2022-08-09T00:15:59.133Z,3.2
2022-08-09T00:18:07.734Z,4.2
2022-08-09T00:19:59.945Z,3.4
2022-08-09T00:22:05.764Z,4
2022-08-09T00:24:11.559Z,4.5
2022-08-09T00:30:28.986Z,3.4
2022-08-09T00:32:34.807Z,4.3
2022-08-09T00:36:49.439Z,4.9
2022-08-09T00:38:55.268Z,4.1
2022-08-09T00:44:13.947Z,4.2
2022-08-09T00:45:15.820Z,3.8
2022-08-09T00:47:18.493Z,3.7
2022-08-09T00:49:28.103Z,4.5
2022-08-09T00:51:34.065Z,3.8
2022-08-09T00:53:38.909Z,5.2
2022-08-09T00:56:49.126Z,4.1
2022-08-09T00:58:54.940Z,5.3
2022-08-09T01:03:09.536Z,4.5
2022-08-09T01:05:22.224Z,5.4
2022-08-09T01:13:42.062Z,4.5
2022-08-09T01:17:57.600Z,5.3
2022-08-09T01:20:02.360Z,4.8
2022-08-09T01:22:04.816Z,4.7
2022-08-09T01:24:10.629Z,4.6
2022-08-09T01:26:16.432Z,6.5
2022-08-09T01:28:22.372Z,6.2
2022-08-09T01:30:28.415Z,4.9
2022-08-09T01:32:36.817Z,4.9
2022-08-09T01:41:03.037Z,4.5
2022-08-09T01:43:05.941Z,6.6
2022-08-09T01:45:11.744Z,6.7
2022-08-09T01:49:26.352Z,6
2022-08-09T01:52:36.549Z,7.1
2022-08-09T01:54:42.358Z,6.4
2022-08-09T02:01:02.771Z,6.3
2022-08-09T02:03:10.581Z,6.5
2022-08-09T02:08:35.462Z,6.2
2022-08-09T02:09:25.991Z,5.5
2022-08-09T02:11:42.738Z,7.1
2022-08-09T02:13:40.684Z,6.8
2022-08-09T02:15:49.606Z,7.5
2022-08-09T02:18:00.489Z,6.4
2022-08-09T02:19:57.990Z,6.8
2022-08-09T02:22:03.814Z,6.4
2022-08-09T02:24:09.608Z,6.1
2022-08-09T02:26:25.389Z,6.5
2022-08-09T02:28:21.205Z,7.7
2022-08-09T02:30:29.996Z,7.3
2022-08-09T02:32:35.820Z,7.2
2022-08-09T02:36:47.524Z,5.9
2022-08-09T02:40:59.012Z,7.3
2022-08-09T02:43:04.818Z,8.2
2022-08-09T02:49:38.433Z,7.3
2022-08-09T02:54:01.131Z,7.3
2022-08-09T02:58:37.105Z,6.5
2022-08-09T03:00:25.760Z,7.4
2022-08-09T03:02:22.800Z,8.5
2022-08-09T03:04:28.999Z,7.9
2022-08-09T03:08:40.206Z,6.6
2022-08-09T03:10:45.973Z,8.3
2022-08-09T03:12:54.761Z,7.1
2022-08-09T03:15:00.546Z,8
2022-08-09T03:27:45.028Z,7
2022-08-09T03:29:57.975Z,8
2022-08-09T03:31:59.688Z,7.6
2022-08-09T03:33:56.433Z,7.3
2022-08-09T03:36:13.716Z,7.3
2022-08-09T03:38:07.311Z,7.8
2022-08-09T03:42:28.887Z,8.3
2022-08-09T03:44:27.859Z,7.3
2022-08-09T03:46:33.464Z,9.4
2022-08-09T03:47:41.839Z,7.9
2022-08-09T03:49:58.147Z,9.2
2022-08-09T03:53:55.274Z,8.2
2022-08-09T03:56:04.057Z,8.9
2022-08-09T03:58:16.590Z,8.1
2022-08-09T04:00:15.642Z,8.6
2022-08-09T04:02:26.568Z,7.8
2022-08-09T04:04:27.240Z,7.6
2022-08-09T04:06:33.059Z,7.8
2022-08-09T04:10:49.715Z,10.1
2022-08-09T04:15:02.561Z,7.9
2022-08-09T04:17:05.021Z,8.1
2022-08-09T04:19:15.814Z,10.8
2022-08-09T04:21:18.155Z,8.3
2022-08-09T04:23:25.081Z,10.8
2022-08-09T04:25:32.730Z,8
2022-08-09T04:27:38.522Z,11.5
2022-08-09T04:29:49.901Z,9.3
2022-08-09T04:31:50.114Z,8.9
2022-08-09T04:33:57.026Z,9
2022-08-09T04:36:01.723Z,9.4
2022-08-09T04:38:07.505Z,10
2022-08-09T04:40:28.811Z,12
2022-08-09T04:42:22.050Z,8.4
2022-08-09T04:45:36.238Z,9.7
2022-08-09T04:47:59.289Z,8.3
2022-08-09T04:49:54.193Z,8.4
2022-08-09T04:51:49.630Z,11.4
2022-08-09T04:53:58.720Z,10
2022-08-09T04:56:05.540Z,10.3
2022-08-09T05:00:16.742Z,10.4
2022-08-09T05:02:21.590Z,9.5
2022-08-09T05:10:47.745Z,9.7
2022-08-09T05:14:59.334Z,11.9
2022-08-09T05:17:05.129Z,10.1
2022-08-09T05:21:23.089Z,9.9
2022-08-09T05:24:00.530Z,11.9
2022-08-09T05:25:32.507Z,10
2022-08-09T05:27:45.320Z,12.4
2022-08-09T05:31:56.315Z,11.5
2022-08-09T05:33:54.462Z,10.4
2022-08-09T05:36:00.276Z,11.9
2022-08-09T05:38:09.045Z,12.3
2022-08-09T05:40:14.918Z,22.6
2022-08-09T05:42:22.107Z,10.4
2022-08-09T05:43:29.163Z,11.2
2022-08-09T05:47:36.637Z,10.1
2022-08-09T05:50:24.151Z,11.4
2022-08-09T05:53:58.112Z,11
2022-08-09T05:58:08.630Z,10.2
2022-08-09T06:00:14.468Z,9.7
2022-08-09T06:02:20.240Z,12.3
2022-08-09T06:04:26.040Z,11.1
2022-08-09T06:06:34.824Z,8.9
2022-08-09T06:08:40.648Z,8.9
2022-08-09T06:10:46.459Z,9
2022-08-09T06:13:03.152Z,7.6
2022-08-09T06:15:01.242Z,7.8
2022-08-09T06:17:05.197Z,7.3
2022-08-09T06:27:42.379Z,9.2
2022-08-09T06:29:48.409Z,8.6
2022-08-09T06:32:08.918Z,7.2
2022-08-09T06:33:53.568Z,6.6
2022-08-09T06:38:07.904Z,6.4
2022-08-09T06:40:17.803Z,5.6
2022-08-09T06:42:46.797Z,6
2022-08-09T06:44:51.925Z,5.9
2022-08-09T06:46:56.554Z,4.3
2022-08-09T06:49:05.320Z,4.2
2022-08-09T06:51:11.061Z,3.6
2022-08-09T06:53:16.831Z,4.5
2022-08-09T06:55:23.259Z,4.8
2022-08-09T06:58:01.783Z,5.2
2022-08-09T07:00:51.714Z,3.4
2022-08-09T07:01:54.709Z,3.7
2022-08-09T07:03:53.148Z,2.4
2022-08-09T07:06:03.756Z,4.1
2022-08-09T07:08:01.810Z,3.1
2022-08-09T07:10:14.159Z,3.7
2022-08-09T07:12:17.369Z,3.1
2022-08-09T07:14:17.176Z,2.6
2022-08-09T07:18:31.593Z,2.9
2022-08-09T07:20:39.667Z,2.2
2022-08-09T07:22:49.546Z,2.9
2022-08-09T07:24:49.304Z,2.6
2022-08-09T07:26:54.335Z,1.9
2022-08-09T07:29:09.349Z,2.1
2022-08-09T07:31:05.705Z,2.9
2022-08-09T07:33:16.441Z,2.5
2022-08-09T07:35:20.037Z,2
2022-08-09T07:37:25.708Z,2.5
2022-08-09T07:40:53.963Z,2
2022-08-09T07:42:41.342Z,2.7
2022-08-09T07:44:52.366Z,1.8
2022-08-09T07:49:01.331Z,2.4
2022-08-09T07:52:02.701Z,1.4
2022-08-09T07:53:12.614Z,2.1
2022-08-09T07:55:18.282Z,1.5
2022-08-09T07:57:23.916Z,2
2022-08-09T07:59:45.969Z,1.4
2022-08-09T08:01:38.321Z,1.6
2022-08-09T08:03:43.898Z,1.5
2022-08-09T08:05:57.242Z,1.8
2022-08-09T08:08:59.970Z,0.9
2022-08-09T08:10:08.772Z,1.5
2022-08-09T08:12:10.818Z,0.9
2022-08-09T08:16:29.827Z,2.7
2022-08-09T08:18:26.390Z,1.4
2022-08-09T08:20:32.679Z,1.3
2022-08-09T08:22:37.717Z,1.2
2022-08-09T08:24:48.651Z,1.1
2022-08-09T08:26:55.898Z,1.2
2022-08-09T08:28:54.584Z,0.9
2022-08-09T08:31:14.025Z,1.2
2022-08-09T08:33:11.894Z,1.1
2022-08-09T08:35:18.210Z,1.6
2022-08-09T08:38:24.445Z,1.8
2022-08-09T08:42:35.976Z,1.1
2022-08-09T08:44:44.370Z,1
2022-08-09T08:47:00.013Z,0.7
2022-08-09T08:48:55.632Z,1.4
2022-08-09T08:53:07.507Z,0.7
2022-08-09T08:55:13.641Z,0.8
2022-08-09T08:57:18.173Z,0.4
2022-08-09T08:59:28.129Z,1
2022-08-09T09:01:35.613Z,1.3
2022-08-09T09:03:38.336Z,0.5
2022-08-09T09:06:01.087Z,0.8
2022-08-09T09:10:02.399Z,0.7
2022-08-09T09:12:00.624Z,1.4
2022-08-09T09:14:09.251Z,1.5
2022-08-09T09:16:14.896Z,0.7
2022-08-09T09:18:20.515Z,0.6
2022-08-09T09:20:27.695Z,0.6
2022-08-09T09:22:31.796Z,0.9
2022-08-09T09:24:37.428Z,0.9
2022-08-09T09:30:57.420Z,0.5
2022-08-09T09:33:02.940Z,0.4
2022-08-09T09:34:07.265Z,0.4
2022-08-09T09:36:20.338Z,0.5
2022-08-09T09:50:55.370Z,0.4
2022-08-09T09:53:01.195Z,0.2
2022-08-09T09:55:16.332Z,0.7
2022-08-09T09:58:02.192Z,0.8
2022-08-09T09:59:20.980Z,0.8
2022-08-09T10:01:31.013Z,0.4
2022-08-09T10:03:32.315Z,0.3
2022-08-09T10:06:03.611Z,0.3
2022-08-09T10:08:11.102Z,0.3
2022-08-09T10:09:54.919Z,1.4
2022-08-09T10:12:07.783Z,1
2022-08-09T10:18:14.933Z,0.5
2022-08-09T10:20:27.592Z,0.4
2022-08-09T10:22:29.289Z,0.8
2022-08-09T10:24:36.102Z,0.3
2022-08-09T10:26:42.207Z,0.4
2022-08-09T10:28:49.047Z,1.3
2022-08-09T10:34:07.845Z,0.9
2022-08-09T10:35:30.341Z,0.3
2022-08-09T10:37:38.330Z,1.5
2022-08-09T10:41:50.335Z,0.3
2022-08-09T10:46:02.131Z,0.5
2022-08-09T10:48:20.499Z,0.4
2022-08-09T10:50:15.423Z,0.7
2022-08-09T10:52:20.496Z,0.6
2022-08-09T10:54:27.391Z,0.6
2022-08-09T10:56:33.067Z,0.8
2022-08-09T10:58:38.753Z,0.4
2022-08-09T11:00:56.890Z,2.6
2022-08-09T11:03:11.582Z,0.6
2022-08-09T11:04:56.576Z,0.3
2022-08-09T11:07:01.668Z,0.3
2022-08-09T11:09:16.146Z,0.4
2022-08-09T11:17:32.786Z,0.3
2022-08-09T11:20:11.383Z,0.7
2022-08-09T11:21:44.101Z,0.3
2022-08-09T11:23:52.759Z,0.3
2022-08-09T11:25:58.448Z,0.2
2022-08-09T11:28:30.670Z,0.8
2022-08-09T11:29:08.426Z,0.3
2022-08-09T11:31:14.101Z,0.4
2022-08-09T11:33:19.760Z,0.2
2022-08-09T11:35:34.745Z,0.5
2022-08-09T11:37:41.043Z,0.5
2022-08-09T11:39:39.808Z,0.5
2022-08-09T11:41:45.462Z,0.6
2022-08-09T11:43:51.711Z,1.1
2022-08-09T11:45:57.547Z,0.4
2022-08-09T11:48:08.165Z,0.6
2022-08-09T11:54:30.058Z,0.3
2022-08-09T11:56:42.545Z,0.6
2022-08-09T11:58:34.009Z,2.4
2022-08-09T12:00:39.483Z,0.3
2022-08-09T12:02:45.590Z,0.2
2022-08-09T12:04:50.930Z,0.3
2022-08-09T12:07:00.554Z,0.7
2022-08-09T12:09:05.180Z,0.4
2022-08-09T12:11:12.685Z,0.1
2022-08-09T12:15:30.230Z,0.3
2022-08-09T12:17:42.150Z,0.6
2022-08-09T12:19:33.620Z,0.5
2022-08-09T12:25:53.710Z,0.9
2022-08-09T12:29:10.078Z,0.3
2022-08-09T12:29:29.965Z,0.7
2022-08-09T12:31:11.222Z,0.4
2022-08-09T12:33:15.161Z,0.8
2022-08-09T12:35:23.807Z,0.6
2022-08-09T12:37:29.505Z,0.8
2022-08-09T12:39:37.681Z,0.7
2022-08-09T12:41:40.923Z,0.3
2022-08-09T12:44:05.844Z,0.4
2022-08-09T12:46:00.285Z,0.4
2022-08-09T12:47:58.041Z,0.2
2022-08-09T12:50:06.743Z,0.5
2022-08-09T12:52:12.438Z,0.4
2022-08-09T12:54:18.158Z,0.1
2022-08-09T12:56:43.024Z,0.4
2022-08-09T12:58:29.591Z,3.7
2022-08-09T13:00:35.293Z,1.4
2022-08-09T13:04:49.712Z,0.7
2022-08-09T13:06:55.415Z,0.4
2022-08-09T13:09:01.278Z,1.2
2022-08-09T13:11:23.163Z,0.9
2022-08-09T13:13:12.548Z,0.5
2022-08-09T13:15:19.123Z,0.5
2022-08-09T13:18:03.451Z,0.5
2022-08-09T13:20:08.644Z,0.6
2022-08-09T13:22:38.182Z,0.6
2022-08-09T13:24:54.325Z,0.5
2022-08-09T13:26:55.037Z,0.5
2022-08-09T13:29:00.726Z,0.8
2022-08-09T13:32:17.771Z,0.7
2022-08-09T13:33:17.098Z,0.2
2022-08-09T13:35:20.839Z,0.4
2022-08-09T13:37:51.995Z,0.6
2022-08-09T13:41:54.897Z,0.4
2022-08-09T13:43:43.664Z,1.1
2022-08-09T13:46:44.532Z,0.2
2022-08-09T13:47:59.160Z,0.8
2022-08-09T13:50:03.807Z,0.6
2022-08-09T13:52:09.691Z,0.6
2022-08-09T13:54:15.209Z,0.6
2022-08-09T13:56:20.916Z,0.6
2022-08-09T13:58:26.870Z,0.4
2022-08-09T14:00:32.341Z,0.4
2022-08-09T14:02:42.948Z,0.7
2022-08-09T14:06:52.461Z,0.9
2022-08-09T14:11:03.882Z,0.6
2022-08-09T14:13:12.069Z,1.6
2022-08-09T14:16:06.327Z,0.6
2022-08-09T14:17:23.982Z,0.5
2022-08-09T14:19:33.205Z,0.5
2022-08-09T14:21:35.390Z,0.3
2022-08-09T14:24:10.363Z,0.8
2022-08-09T14:26:12.169Z,0.6
2022-08-09T14:30:36.921Z,0.3
2022-08-09T14:32:32.351Z,0.5
2022-08-09T14:34:40.913Z,0.6
2022-08-09T14:36:43.712Z,0.6
2022-08-09T14:38:52.966Z,0.7
2022-08-09T14:41:04.273Z,1.1
2022-08-09T14:43:00.825Z,0.5
2022-08-09T14:46:39.172Z,0.6
2022-08-09T14:59:52.439Z,0.4
2022-08-09T15:06:09.555Z,0.9
2022-08-09T15:08:16.474Z,0.2
2022-08-09T15:10:20.952Z,0.4
2022-08-09T15:12:26.737Z,0.3
2022-08-09T15:14:38.503Z,0.7
2022-08-09T15:16:41.070Z,0.5
2022-08-09T15:18:49.067Z,0.3
2022-08-09T15:19:59.370Z,0.6
2022-08-09T15:22:02.203Z,1.5
2022-08-09T15:24:12.612Z,0.8
2022-08-09T15:26:09.125Z,0.9
2022-08-09T15:28:26.305Z,1.1
2022-08-09T15:30:57.363Z,0.8
2022-08-09T15:32:30.354Z,0.6
2022-08-09T15:34:35.397Z,0.7
2022-08-09T15:36:40.545Z,0.7
2022-08-09T15:38:45.425Z,2.2
2022-08-09T15:40:51.148Z,0.7
2022-08-09T15:42:59.825Z,0.4
2022-08-09T15:45:05.548Z,0.8
2022-08-09T15:47:13.956Z,0.6
2022-08-09T15:51:44.226Z,0.1
2022-08-09T15:54:06.997Z,1.5
2022-08-09T15:55:34.458Z,0.9
2022-08-09T15:57:51.132Z,2.5
2022-08-09T15:59:51.701Z,0.9
2022-08-09T16:01:54.121Z,0.6
2022-08-09T16:03:59.818Z,1
2022-08-09T16:06:05.528Z,0.7
2022-08-09T16:08:15.207Z,1.1
2022-08-09T16:10:38.478Z,2.6
2022-08-09T16:12:29.159Z,0.9
2022-08-09T16:14:31.791Z,0.7
2022-08-09T16:16:38.116Z,0.9
2022-08-09T16:17:44.359Z,0.9
2022-08-09T16:24:01.796Z,0.7
2022-08-09T16:26:08.803Z,1.1
2022-08-09T16:28:14.411Z,1
2022-08-09T16:30:25.802Z,0.7
2022-08-09T16:32:34.406Z,0.9
2022-08-09T16:34:55.403Z,0.8
2022-08-09T16:36:37.215Z,2.7
2022-08-09T16:38:42.937Z,1.9
2022-08-09T16:40:51.720Z,1
2022-08-09T16:42:57.319Z,0.3
2022-08-09T16:45:03.032Z,1.2
2022-08-09T16:48:39.726Z,0.4
2022-08-09T16:49:17.778Z,0.5
2022-08-09T16:51:20.160Z,0.6
2022-08-09T16:53:26.819Z,1.1
2022-08-09T16:55:59.924Z,0.9
2022-08-09T16:57:40.457Z,0.9
2022-08-09T16:59:50.123Z,0.9
2022-08-09T17:01:52.993Z,0.6
2022-08-09T17:03:57.407Z,1.1
2022-08-09T17:06:29.138Z,1.3
2022-08-09T17:08:44.642Z,0.7
2022-08-09T17:10:17.524Z,1
2022-08-09T17:12:23.241Z,1
2022-08-09T17:14:28.977Z,1.1
2022-08-09T17:15:59.425Z,0.5
2022-08-09T17:21:55.471Z,0.6
2022-08-09T17:28:10.588Z,3.2
2022-08-09T17:30:16.294Z,0.9
2022-08-09T17:32:34.955Z,1.1
2022-08-09T17:35:07.383Z,0.7
2022-08-09T17:36:33.457Z,0.8
2022-08-09T17:38:57.962Z,1.2
2022-08-09T17:40:47.912Z,0.9
2022-08-09T17:42:55.509Z,1.1
2022-08-09T17:44:59.341Z,0.6
2022-08-09T17:47:05.067Z,0.9
2022-08-09T17:49:10.769Z,0.7
2022-08-09T17:51:18.754Z,1.1
2022-08-09T17:53:25.093Z,1
2022-08-09T17:55:47.059Z,0.7
2022-08-09T17:58:03.330Z,0.9
2022-08-09T17:59:42.304Z,0.8
2022-08-09T18:02:06.680Z,0.6
2022-08-09T18:03:54.239Z,1.2
2022-08-09T18:06:00.759Z,1.9
2022-08-09T18:08:11.144Z,2.2
2022-08-09T18:10:13.982Z,0.6
2022-08-09T18:12:20.566Z,1.4
2022-08-09T18:14:54.547Z,1.1
2022-08-09T18:16:56.590Z,0.9
2022-08-09T18:19:03.784Z,1.2
2022-08-09T18:21:21.542Z,0.3
2022-08-09T18:24:09.788Z,1
2022-08-09T18:25:50.783Z,0.9
2022-08-09T18:28:03.888Z,1.3
2022-08-09T18:30:34.597Z,0.7
2022-08-09T18:31:55.712Z,0.5
2022-08-09T18:38:00.061Z,0.9
2022-08-09T18:44:17.294Z,0.7
2022-08-09T18:46:48.545Z,1.8
2022-08-09T18:48:30.361Z,0.3
2022-08-09T18:50:37.543Z,0.6
2022-08-09T18:54:52.200Z,1.1
2022-08-09T18:56:55.162Z,0.7
2022-08-09T18:59:00.943Z,1.5
2022-08-09T19:01:06.344Z,0.9
2022-08-09T19:03:12.086Z,0.6
2022-08-09T19:05:48.714Z,0.7
2022-08-09T19:07:26.741Z,1.2
2022-08-09T19:10:12.884Z,0.9
2022-08-09T19:10:37.702Z,0.7
2022-08-09T19:12:42.544Z,1
2022-08-09T19:14:48.374Z,0.7
2022-08-09T19:16:54.070Z,0.8
2022-08-09T19:21:09.468Z,1.6
2022-08-09T19:23:16.768Z,0.6
2022-08-09T19:25:41.799Z,0.4
2022-08-09T19:31:44.295Z,0.7
2022-08-09T19:33:46.192Z,0.6
2022-08-09T19:35:57.640Z,0.5
2022-08-09T19:37:58.052Z,1.1
2022-08-09T19:44:15.073Z,0.9
2022-08-09T19:46:34.220Z,1.1
2022-08-09T19:54:46.990Z,0.7
2022-08-09T19:59:40.490Z,0.8
2022-08-09T20:05:18.975Z,0.8
2022-08-09T20:08:34.899Z,1.6
2022-08-09T20:10:36.924Z,0.5
2022-08-09T20:12:45.480Z,0.9
2022-08-09T20:14:50.175Z,1.1
2022-08-09T20:16:55.202Z,1.3
2022-08-09T20:19:42.598Z,1.7
2022-08-09T20:21:08.465Z,1.2
2022-08-09T20:23:12.481Z,1.3
2022-08-09T20:25:22.350Z,0.8
2022-08-09T20:27:24.027Z,0.7
2022-08-09T20:29:37.884Z,0.7
2022-08-09T20:32:17.116Z,0.8
2022-08-09T20:33:44.702Z,0.9
2022-08-09T20:35:50.675Z,0.7
2022-08-09T20:38:19.502Z,0.7
2022-08-09T20:40:16.161Z,1
2022-08-09T20:42:07.534Z,0.7
2022-08-09T20:46:33.973Z,0.7
2022-08-09T20:50:48.055Z,0.9
2022-08-09T20:56:53.892Z,0.9
2022-08-09T21:01:33.383Z,0.7
2022-08-09T21:05:57.068Z,0.7
2022-08-09T21:06:22.420Z,0.9
2022-08-09T21:08:36.346Z,2.2
2022-08-09T21:10:33.327Z,0.7
2022-08-09T21:12:39.121Z,1.4
2022-08-09T21:16:53.668Z,1.1
2022-08-09T21:21:17.453Z,0.6
2022-08-09T21:23:13.302Z,1
2022-08-09T21:27:51.804Z,0.5
2022-08-09T21:31:49.194Z,1.1
2022-08-09T21:33:43.104Z,0.7
2022-08-09T21:35:51.160Z,0.7
2022-08-09T21:37:59.515Z,0.8
2022-08-09T21:42:10.159Z,0.8
2022-08-09T21:48:26.721Z,0.9
2022-08-09T21:50:38.391Z,1.2
2022-08-09T21:52:38.379Z,0.7
2022-08-09T21:54:46.139Z,1.1
2022-08-09T22:05:42.335Z,1
2022-08-09T22:07:51.755Z,1.4
2022-08-09T22:09:53.260Z,1.2
2022-08-09T22:12:18.079Z,1.5
2022-08-09T22:14:10.925Z,1.2
2022-08-09T22:16:13.661Z,0.8
2022-08-09T22:18:19.476Z,0.8
2022-08-09T22:20:27.513Z,0.6
2022-08-09T22:22:31.223Z,1.7
2022-08-09T22:24:36.943Z,1.2
2022-08-09T22:26:51.153Z,1
2022-08-09T22:28:54.241Z,0.9
2022-08-09T22:33:09.234Z,1.1
2022-08-09T22:36:01.460Z,1
2022-08-09T22:37:16.406Z,1.1
2022-08-09T22:39:56.021Z,1
2022-08-09T22:41:30.981Z,0.8
2022-08-09T22:44:02.797Z,1.3
2022-08-09T22:48:11.847Z,0.9
2022-08-09T22:48:16.185Z,0.8
2022-08-09T22:49:54.226Z,0.9
2022-08-09T22:52:00.052Z,0.8
2022-08-09T22:54:08.224Z,1.4
2022-08-09T22:56:31.391Z,1.1
2022-08-09T22:58:32.816Z,1.5
2022-08-09T23:00:29.296Z,1.3
2022-08-09T23:05:45.870Z,1
2022-08-09T23:09:56.905Z,1.7
2022-08-09T23:12:02.744Z,0.9
2022-08-09T23:16:14.318Z,1.3
2022-08-09T23:18:20.167Z,1.9
2022-08-09T23:20:25.966Z,1.1
2022-08-09T23:22:31.789Z,1.2
2022-08-09T23:28:52.240Z,1.4
2022-08-09T23:33:03.829Z,1.2
2022-08-09T23:35:09.649Z,1.4
2022-08-09T23:37:15.484Z,1.7
2022-08-09T23:39:24.297Z,1.3
2022-08-09T23:41:30.147Z,1.5
2022-08-09T23:43:35.921Z,1.6
2022-08-09T23:45:41.720Z,1
2022-08-09T23:47:47.555Z,1.2
2022-08-09T23:49:53.354Z,1
2022-08-09T23:51:59.170Z,1.4
2022-08-09T23:54:07.925Z,1.5
2022-08-09T23:56:13.771Z,1.5
2022-08-09T23:58:25.988Z,1.6
2022-08-09T23:59:23.973Z,1.4
